sensor_id;sensor_type;location;lat;lon;timestamp;P1;durP1;ratioP1;P2;durP2;ratioP2
47713;SDS011;33475;46.614;13.888;2022-09-03T00:02:08;1.75;;;1.60;;
47713;SDS011;33475;46.614;13.888;2022-09-03T00:04:43;3.45;;;1.58;;
47713;SDS011;33475;46.614;13.888;2022-09-03T00:07:19;1.73;;;1.63;;
47713;SDS011;33475;46.614;13.888;2022-09-03T00:09:54;2.47;;;1.63;;
47713;SDS011;33475;46.614;13.888;2022-09-03T00:12:28;3.13;;;1.80;;
47713;SDS011;33475;46.614;13.888;2022-09-03T00:15:01;6.57;;;1.48;;
47713;SDS011;33475;46.614;13.888;2022-09-03T00:17:29;2.85;;;1.52;;
47713;SDS011;33475;46.614;13.888;2022-09-03T00:20:01;5.22;;;1.70;;
47713;SDS011;33475;46.614;13.888;2022-09-03T00:22:32;2.55;;;2.10;;
47713;SDS011;33475;46.614;13.888;2022-09-03T00:25:01;3.03;;;1.73;;
47713;SDS011;33475;46.614;13.888;2022-09-03T00:27:29;3.40;;;1.67;;
47713;SDS011;33475;46.614;13.888;2022-09-03T00:30:04;1.85;;;1.50;;
47713;SDS011;33475;46.614;13.888;2022-09-03T00:35:33;1.98;;;1.77;;
47713;SDS011;33475;46.614;13.888;2022-09-03T00:37:58;1.92;;;1.70;;
47713;SDS011;33475;46.614;13.888;2022-09-03T00:40:32;3.90;;;2.20;;
47713;SDS011;33475;46.614;13.888;2022-09-03T00:45:39;2.65;;;2.20;;
47713;SDS011;33475;46.614;13.888;2022-09-03T00:48:26;2.72;;;2.00;;
47713;SDS011;33475;46.614;13.888;2022-09-03T01:01:20;3.60;;;1.98;;
47713;SDS011;33475;46.614;13.888;2022-09-03T01:09:31;4.72;;;1.80;;
47713;SDS011;33475;46.614;13.888;2022-09-03T01:17:00;3.05;;;2.00;;
47713;SDS011;33475;46.614;13.888;2022-09-03T01:19:37;7.55;;;2.05;;
47713;SDS011;33475;46.614;13.888;2022-09-03T01:32:24;3.88;;;1.98;;
47713;SDS011;33475;46.614;13.888;2022-09-03T01:34:59;3.03;;;2.28;;
47713;SDS011;33475;46.614;13.888;2022-09-03T01:37:30;9.77;;;2.90;;
47713;SDS011;33475;46.614;13.888;2022-09-03T01:53:44;3.13;;;2.20;;
47713;SDS011;33475;46.614;13.888;2022-09-03T01:56:30;3.17;;;2.20;;
47713;SDS011;33475;46.614;13.888;2022-09-03T02:01:49;5.10;;;2.05;;
47713;SDS011;33475;46.614;13.888;2022-09-03T02:04:19;3.25;;;2.08;;
47713;SDS011;33475;46.614;13.888;2022-09-03T02:06:47;4.38;;;2.50;;
47713;SDS011;33475;46.614;13.888;2022-09-03T02:09:14;2.53;;;2.30;;
47713;SDS011;33475;46.614;13.888;2022-09-03T02:11:40;2.42;;;2.13;;
47713;SDS011;33475;46.614;13.888;2022-09-03T02:14:08;3.10;;;2.10;;
47713;SDS011;33475;46.614;13.888;2022-09-03T02:16:35;2.13;;;1.90;;
47713;SDS011;33475;46.614;13.888;2022-09-03T02:19:12;5.70;;;2.38;;
47713;SDS011;33475;46.614;13.888;2022-09-03T02:21:42;3.05;;;2.20;;
47713;SDS011;33475;46.614;13.888;2022-09-03T02:24:11;2.28;;;2.08;;
47713;SDS011;33475;46.614;13.888;2022-09-03T02:26:38;4.13;;;2.40;;
47713;SDS011;33475;46.614;13.888;2022-09-03T02:29:05;3.28;;;1.95;;
47713;SDS011;33475;46.614;13.888;2022-09-03T02:31:31;3.92;;;2.50;;
47713;SDS011;33475;46.614;13.888;2022-09-03T02:33:58;2.15;;;1.95;;
47713;SDS011;33475;46.614;13.888;2022-09-03T02:36:26;2.55;;;2.05;;
47713;SDS011;33475;46.614;13.888;2022-09-03T02:38:54;2.58;;;2.33;;
47713;SDS011;33475;46.614;13.888;2022-09-03T02:41:20;5.32;;;2.10;;
47713;SDS011;33475;46.614;13.888;2022-09-03T02:46:16;2.63;;;2.42;;
47713;SDS011;33475;46.614;13.888;2022-09-03T02:48:43;6.32;;;3.20;;
47713;SDS011;33475;46.614;13.888;2022-09-03T02:51:09;5.13;;;2.20;;
47713;SDS011;33475;46.614;13.888;2022-09-03T02:53:36;2.45;;;2.17;;
47713;SDS011;33475;46.614;13.888;2022-09-03T02:56:03;2.53;;;2.30;;
47713;SDS011;33475;46.614;13.888;2022-09-03T02:58:30;5.00;;;2.40;;
47713;SDS011;33475;46.614;13.888;2022-09-03T03:00:58;2.63;;;2.42;;
47713;SDS011;33475;46.614;13.888;2022-09-03T03:03:25;2.38;;;2.20;;
47713;SDS011;33475;46.614;13.888;2022-09-03T03:05:55;7.53;;;2.30;;
47713;SDS011;33475;46.614;13.888;2022-09-03T03:08:23;2.63;;;2.28;;
47713;SDS011;33475;46.614;13.888;2022-09-03T03:10:54;6.85;;;2.30;;
47713;SDS011;33475;46.614;13.888;2022-09-03T03:13:24;6.47;;;2.25;;
47713;SDS011;33475;46.614;13.888;2022-09-03T03:15:51;5.88;;;2.45;;
47713;SDS011;33475;46.614;13.888;2022-09-03T03:18:20;4.75;;;2.13;;
47713;SDS011;33475;46.614;13.888;2022-09-03T03:20:46;3.25;;;1.95;;
47713;SDS011;33475;46.614;13.888;2022-09-03T03:23:13;2.53;;;2.03;;
47713;SDS011;33475;46.614;13.888;2022-09-03T03:25:40;2.47;;;2.00;;
47713;SDS011;33475;46.614;13.888;2022-09-03T03:28:07;8.10;;;2.30;;
47713;SDS011;33475;46.614;13.888;2022-09-03T03:30:36;2.90;;;1.90;;
47713;SDS011;33475;46.614;13.888;2022-09-03T03:33:04;13.30;;;2.50;;
47713;SDS011;33475;46.614;13.888;2022-09-03T03:35:31;3.05;;;2.53;;
47713;SDS011;33475;46.614;13.888;2022-09-03T03:37:58;3.33;;;2.30;;
47713;SDS011;33475;46.614;13.888;2022-09-03T03:40:24;7.00;;;2.47;;
47713;SDS011;33475;46.614;13.888;2022-09-03T03:42:51;4.72;;;2.40;;
47713;SDS011;33475;46.614;13.888;2022-09-03T03:45:18;5.07;;;2.72;;
47713;SDS011;33475;46.614;13.888;2022-09-03T03:47:45;11.50;;;2.80;;
47713;SDS011;33475;46.614;13.888;2022-09-03T03:50:13;5.78;;;2.80;;
47713;SDS011;33475;46.614;13.888;2022-09-03T03:52:40;2.95;;;2.67;;
47713;SDS011;33475;46.614;13.888;2022-09-03T03:55:08;2.97;;;2.28;;
47713;SDS011;33475;46.614;13.888;2022-09-03T03:57:35;2.55;;;2.33;;
47713;SDS011;33475;46.614;13.888;2022-09-03T04:00:02;7.07;;;2.28;;
47713;SDS011;33475;46.614;13.888;2022-09-03T04:02:28;7.07;;;2.70;;
47713;SDS011;33475;46.614;13.888;2022-09-03T04:04:55;2.83;;;2.40;;
47713;SDS011;33475;46.614;13.888;2022-09-03T04:07:22;2.22;;;2.10;;
47713;SDS011;33475;46.614;13.888;2022-09-03T04:09:49;3.83;;;2.20;;
47713;SDS011;33475;46.614;13.888;2022-09-03T04:12:15;4.53;;;2.40;;
47713;SDS011;33475;46.614;13.888;2022-09-03T04:14:43;3.65;;;2.20;;
47713;SDS011;33475;46.614;13.888;2022-09-03T04:17:09;6.80;;;2.47;;
47713;SDS011;33475;46.614;13.888;2022-09-03T04:19:36;4.55;;;2.88;;
47713;SDS011;33475;46.614;13.888;2022-09-03T04:22:03;5.65;;;2.38;;
47713;SDS011;33475;46.614;13.888;2022-09-03T04:24:29;3.80;;;2.05;;
47713;SDS011;33475;46.614;13.888;2022-09-03T04:26:56;5.80;;;2.60;;
47713;SDS011;33475;46.614;13.888;2022-09-03T04:29:22;2.63;;;2.42;;
47713;SDS011;33475;46.614;13.888;2022-09-03T04:31:49;4.20;;;2.45;;
47713;SDS011;33475;46.614;13.888;2022-09-03T04:34:34;4.50;;;2.28;;
47713;SDS011;33475;46.614;13.888;2022-09-03T04:37:00;5.70;;;2.58;;
47713;SDS011;33475;46.614;13.888;2022-09-03T04:39:27;6.78;;;2.50;;
47713;SDS011;33475;46.614;13.888;2022-09-03T04:41:53;4.53;;;2.50;;
47713;SDS011;33475;46.614;13.888;2022-09-03T04:44:21;5.10;;;2.20;;
47713;SDS011;33475;46.614;13.888;2022-09-03T04:46:47;5.35;;;2.22;;
47713;SDS011;33475;46.614;13.888;2022-09-03T04:49:14;2.75;;;2.22;;
47713;SDS011;33475;46.614;13.888;2022-09-03T04:51:41;3.40;;;2.05;;
47713;SDS011;33475;46.614;13.888;2022-09-03T04:54:08;4.85;;;2.20;;
47713;SDS011;33475;46.614;13.888;2022-09-03T04:56:34;3.65;;;2.40;;
47713;SDS011;33475;46.614;13.888;2022-09-03T04:59:02;2.55;;;2.35;;
47713;SDS011;33475;46.614;13.888;2022-09-03T05:01:30;2.22;;;2.13;;
47713;SDS011;33475;46.614;13.888;2022-09-03T05:03:57;3.17;;;2.03;;
47713;SDS011;33475;46.614;13.888;2022-09-03T05:06:24;2.63;;;2.05;;
47713;SDS011;33475;46.614;13.888;2022-09-03T05:08:51;2.20;;;2.00;;
47713;SDS011;33475;46.614;13.888;2022-09-03T05:11:18;4.82;;;2.75;;
47713;SDS011;33475;46.614;13.888;2022-09-03T05:13:48;6.65;;;2.42;;
47713;SDS011;33475;46.614;13.888;2022-09-03T05:16:15;2.97;;;2.33;;
47713;SDS011;33475;46.614;13.888;2022-09-03T05:18:41;2.55;;;2.22;;
47713;SDS011;33475;46.614;13.888;2022-09-03T05:21:10;2.33;;;2.13;;
47713;SDS011;33475;46.614;13.888;2022-09-03T05:23:38;2.53;;;2.00;;
47713;SDS011;33475;46.614;13.888;2022-09-03T05:26:06;4.90;;;1.98;;
47713;SDS011;33475;46.614;13.888;2022-09-03T05:28:34;4.47;;;1.88;;
47713;SDS011;33475;46.614;13.888;2022-09-03T05:31:02;1.70;;;1.60;;
47713;SDS011;33475;46.614;13.888;2022-09-03T05:33:31;2.60;;;1.70;;
47713;SDS011;33475;46.614;13.888;2022-09-03T05:36:18;3.33;;;1.98;;
47713;SDS011;33475;46.614;13.888;2022-09-03T05:38:45;3.95;;;1.98;;
47713;SDS011;33475;46.614;13.888;2022-09-03T05:41:12;2.85;;;2.00;;
47713;SDS011;33475;46.614;13.888;2022-09-03T05:43:39;5.78;;;1.90;;
47713;SDS011;33475;46.614;13.888;2022-09-03T05:46:06;3.72;;;2.17;;
47713;SDS011;33475;46.614;13.888;2022-09-03T05:48:34;3.30;;;2.15;;
47713;SDS011;33475;46.614;13.888;2022-09-03T05:51:11;9.52;;;2.25;;
47713;SDS011;33475;46.614;13.888;2022-09-03T05:53:40;5.07;;;2.55;;
47713;SDS011;33475;46.614;13.888;2022-09-03T05:56:08;3.67;;;2.55;;
47713;SDS011;33475;46.614;13.888;2022-09-03T05:58:36;4.18;;;2.33;;
47713;SDS011;33475;46.614;13.888;2022-09-03T06:01:11;5.53;;;2.03;;
47713;SDS011;33475;46.614;13.888;2022-09-03T06:06:05;3.05;;;2.13;;
47713;SDS011;33475;46.614;13.888;2022-09-03T06:08:32;3.38;;;2.00;;
47713;SDS011;33475;46.614;13.888;2022-09-03T06:10:59;3.28;;;1.90;;
47713;SDS011;33475;46.614;13.888;2022-09-03T06:13:25;3.78;;;1.70;;
47713;SDS011;33475;46.614;13.888;2022-09-03T06:15:57;5.65;;;2.15;;
47713;SDS011;33475;46.614;13.888;2022-09-03T06:18:25;3.97;;;2.03;;
47713;SDS011;33475;46.614;13.888;2022-09-03T06:20:55;3.05;;;2.15;;
47713;SDS011;33475;46.614;13.888;2022-09-03T06:23:23;5.88;;;2.63;;
47713;SDS011;33475;46.614;13.888;2022-09-03T06:26:03;5.88;;;2.40;;
47713;SDS011;33475;46.614;13.888;2022-09-03T06:28:30;4.38;;;2.60;;
47713;SDS011;33475;46.614;13.888;2022-09-03T06:30:58;3.22;;;2.03;;
47713;SDS011;33475;46.614;13.888;2022-09-03T06:33:26;3.08;;;2.47;;
47713;SDS011;33475;46.614;13.888;2022-09-03T06:35:55;2.45;;;2.00;;
47713;SDS011;33475;46.614;13.888;2022-09-03T06:38:25;3.90;;;2.53;;
47713;SDS011;33475;46.614;13.888;2022-09-03T06:40:53;9.38;;;2.10;;
47713;SDS011;33475;46.614;13.888;2022-09-03T06:43:20;1.90;;;1.70;;
47713;SDS011;33475;46.614;13.888;2022-09-03T06:46:04;2.25;;;1.92;;
47713;SDS011;33475;46.614;13.888;2022-09-03T06:48:32;2.45;;;2.10;;
47713;SDS011;33475;46.614;13.888;2022-09-03T06:50:59;2.53;;;2.00;;
47713;SDS011;33475;46.614;13.888;2022-09-03T06:53:26;2.67;;;2.40;;
47713;SDS011;33475;46.614;13.888;2022-09-03T06:55:54;5.07;;;2.47;;
47713;SDS011;33475;46.614;13.888;2022-09-03T06:58:20;3.72;;;2.10;;
47713;SDS011;33475;46.614;13.888;2022-09-03T07:00:47;2.30;;;1.70;;
47713;SDS011;33475;46.614;13.888;2022-09-03T07:03:14;1.90;;;1.80;;
47713;SDS011;33475;46.614;13.888;2022-09-03T07:05:42;3.10;;;2.00;;
47713;SDS011;33475;46.614;13.888;2022-09-03T07:08:09;3.70;;;1.70;;
47713;SDS011;33475;46.614;13.888;2022-09-03T07:10:36;4.13;;;1.77;;
47713;SDS011;33475;46.614;13.888;2022-09-03T07:13:02;6.28;;;2.13;;
47713;SDS011;33475;46.614;13.888;2022-09-03T07:15:31;2.13;;;1.92;;
47713;SDS011;33475;46.614;13.888;2022-09-03T07:17:58;2.42;;;1.80;;
47713;SDS011;33475;46.614;13.888;2022-09-03T07:20:25;2.88;;;1.98;;
47713;SDS011;33475;46.614;13.888;2022-09-03T07:22:54;1.98;;;1.83;;
47713;SDS011;33475;46.614;13.888;2022-09-03T07:25:22;3.53;;;2.00;;
47713;SDS011;33475;46.614;13.888;2022-09-03T07:27:48;2.38;;;1.85;;
47713;SDS011;33475;46.614;13.888;2022-09-03T07:30:15;3.65;;;2.00;;
47713;SDS011;33475;46.614;13.888;2022-09-03T07:32:44;3.13;;;2.03;;
47713;SDS011;33475;46.614;13.888;2022-09-03T07:35:11;4.32;;;1.83;;
47713;SDS011;33475;46.614;13.888;2022-09-03T07:37:39;2.40;;;2.20;;
47713;SDS011;33475;46.614;13.888;2022-09-03T07:40:07;3.45;;;2.00;;
47713;SDS011;33475;46.614;13.888;2022-09-03T07:42:35;6.45;;;2.30;;
47713;SDS011;33475;46.614;13.888;2022-09-03T07:45:04;3.80;;;2.40;;
47713;SDS011;33475;46.614;13.888;2022-09-03T07:47:34;2.13;;;1.83;;
47713;SDS011;33475;46.614;13.888;2022-09-03T07:50:01;8.90;;;1.70;;
47713;SDS011;33475;46.614;13.888;2022-09-03T07:52:28;3.25;;;1.63;;
47713;SDS011;33475;46.614;13.888;2022-09-03T07:54:54;1.92;;;1.65;;
47713;SDS011;33475;46.614;13.888;2022-09-03T07:57:20;2.47;;;1.45;;
47713;SDS011;33475;46.614;13.888;2022-09-03T07:59:46;2.17;;;1.65;;
47713;SDS011;33475;46.614;13.888;2022-09-03T08:02:12;3.85;;;1.40;;
47713;SDS011;33475;46.614;13.888;2022-09-03T08:04:39;3.08;;;2.00;;
47713;SDS011;33475;46.614;13.888;2022-09-03T08:07:05;1.92;;;1.67;;
47713;SDS011;33475;46.614;13.888;2022-09-03T08:09:31;2.47;;;1.30;;
47713;SDS011;33475;46.614;13.888;2022-09-03T08:11:57;6.50;;;2.10;;
47713;SDS011;33475;46.614;13.888;2022-09-03T08:14:24;2.42;;;1.70;;
47713;SDS011;33475;46.614;13.888;2022-09-03T08:16:50;2.97;;;1.45;;
47713;SDS011;33475;46.614;13.888;2022-09-03T08:19:17;1.70;;;1.50;;
47713;SDS011;33475;46.614;13.888;2022-09-03T08:21:43;1.95;;;1.40;;
47713;SDS011;33475;46.614;13.888;2022-09-03T08:24:10;2.75;;;1.52;;
47713;SDS011;33475;46.614;13.888;2022-09-03T08:26:37;1.83;;;1.35;;
47713;SDS011;33475;46.614;13.888;2022-09-03T08:29:04;3.80;;;1.42;;
47713;SDS011;33475;46.614;13.888;2022-09-03T08:31:31;2.60;;;1.50;;
47713;SDS011;33475;46.614;13.888;2022-09-03T08:33:59;2.05;;;1.58;;
47713;SDS011;33475;46.614;13.888;2022-09-03T08:36:31;2.70;;;1.52;;
47713;SDS011;33475;46.614;13.888;2022-09-03T08:39:00;1.20;;;1.10;;
47713;SDS011;33475;46.614;13.888;2022-09-03T08:47:14;1.67;;;1.30;;
47713;SDS011;33475;46.614;13.888;2022-09-03T08:49:22;5.80;;;2.28;;
47713;SDS011;33475;46.614;13.888;2022-09-03T08:51:49;1.50;;;1.20;;
47713;SDS011;33475;46.614;13.888;2022-09-03T08:54:17;3.15;;;1.45;;
47713;SDS011;33475;46.614;13.888;2022-09-03T08:56:45;3.35;;;1.30;;
47713;SDS011;33475;46.614;13.888;2022-09-03T08:59:11;3.10;;;1.35;;
47713;SDS011;33475;46.614;13.888;2022-09-03T09:04:07;1.40;;;1.15;;
47713;SDS011;33475;46.614;13.888;2022-09-03T09:11:47;3.85;;;1.40;;
47713;SDS011;33475;46.614;13.888;2022-09-03T09:16:46;2.53;;;1.40;;
47713;SDS011;33475;46.614;13.888;2022-09-03T09:21:45;2.60;;;1.27;;
47713;SDS011;33475;46.614;13.888;2022-09-03T09:24:23;4.45;;;1.63;;
47713;SDS011;33475;46.614;13.888;2022-09-03T09:26:52;1.70;;;1.25;;
47713;SDS011;33475;46.614;13.888;2022-09-03T09:29:20;2.85;;;1.20;;
47713;SDS011;33475;46.614;13.888;2022-09-03T09:31:46;2.55;;;1.10;;
47713;SDS011;33475;46.614;13.888;2022-09-03T09:34:13;2.72;;;1.10;;
47713;SDS011;33475;46.614;13.888;2022-09-03T09:36:45;2.55;;;1.40;;
47713;SDS011;33475;46.614;13.888;2022-09-03T09:39:12;4.38;;;1.45;;
47713;SDS011;33475;46.614;13.888;2022-09-03T09:41:42;1.40;;;1.05;;
47713;SDS011;33475;46.614;13.888;2022-09-03T09:44:16;1.40;;;1.30;;
47713;SDS011;33475;46.614;13.888;2022-09-03T09:46:43;1.30;;;1.20;;
47713;SDS011;33475;46.614;13.888;2022-09-03T09:52:03;1.92;;;1.20;;
47713;SDS011;33475;46.614;13.888;2022-09-03T09:54:30;1.42;;;1.33;;
47713;SDS011;33475;46.614;13.888;2022-09-03T09:57:00;8.85;;;1.13;;
47713;SDS011;33475;46.614;13.888;2022-09-03T09:59:27;1.25;;;0.95;;
47713;SDS011;33475;46.614;13.888;2022-09-03T10:02:03;3.03;;;0.90;;
47713;SDS011;33475;46.614;13.888;2022-09-03T10:04:33;3.20;;;1.10;;
47713;SDS011;33475;46.614;13.888;2022-09-03T10:07:03;2.17;;;1.05;;
47713;SDS011;33475;46.614;13.888;2022-09-03T10:09:31;1.52;;;1.05;;
47713;SDS011;33475;46.614;13.888;2022-09-03T10:12:14;1.15;;;0.80;;
47713;SDS011;33475;46.614;13.888;2022-09-03T10:28:05;1.83;;;0.70;;
47713;SDS011;33475;46.614;13.888;2022-09-03T10:30:37;0.68;;;0.68;;
47713;SDS011;33475;46.614;13.888;2022-09-03T10:33:13;1.63;;;1.02;;
47713;SDS011;33475;46.614;13.888;2022-09-03T10:35:42;1.35;;;0.73;;
47713;SDS011;33475;46.614;13.888;2022-09-03T10:38:17;1.05;;;0.70;;
47713;SDS011;33475;46.614;13.888;2022-09-03T10:40:56;1.67;;;0.88;;
47713;SDS011;33475;46.614;13.888;2022-09-03T10:43:45;1.95;;;0.70;;
47713;SDS011;33475;46.614;13.888;2022-09-03T10:46:18;0.70;;;0.70;;
47713;SDS011;33475;46.614;13.888;2022-09-03T10:56:21;1.00;;;0.80;;
47713;SDS011;33475;46.614;13.888;2022-09-03T11:07:00;0.65;;;0.60;;
47713;SDS011;33475;46.614;13.888;2022-09-03T11:09:35;0.80;;;0.60;;
47713;SDS011;33475;46.614;13.888;2022-09-03T11:12:10;1.23;;;0.57;;
47713;SDS011;33475;46.614;13.888;2022-09-03T11:17:26;0.98;;;0.60;;
47713;SDS011;33475;46.614;13.888;2022-09-03T11:19:58;0.85;;;0.60;;
47713;SDS011;33475;46.614;13.888;2022-09-03T11:22:28;1.95;;;0.60;;
47713;SDS011;33475;46.614;13.888;2022-09-03T11:24:57;0.52;;;0.50;;
47713;SDS011;33475;46.614;13.888;2022-09-03T11:30:02;1.50;;;0.82;;
47713;SDS011;33475;46.614;13.888;2022-09-03T11:32:46;0.88;;;0.80;;
47713;SDS011;33475;46.614;13.888;2022-09-03T11:35:27;3.08;;;1.20;;
47713;SDS011;33475;46.614;13.888;2022-09-03T11:37:59;1.63;;;0.98;;
47713;SDS011;33475;46.614;13.888;2022-09-03T11:40:37;1.23;;;0.70;;
47713;SDS011;33475;46.614;13.888;2022-09-03T11:43:10;1.40;;;0.70;;
47713;SDS011;33475;46.614;13.888;2022-09-03T11:45:39;2.63;;;0.75;;
47713;SDS011;33475;46.614;13.888;2022-09-03T11:48:52;2.22;;;0.60;;
47713;SDS011;33475;46.614;13.888;2022-09-03T11:50:53;2.08;;;0.70;;
47713;SDS011;33475;46.614;13.888;2022-09-03T11:53:31;3.78;;;0.88;;
47713;SDS011;33475;46.614;13.888;2022-09-03T11:56:00;2.97;;;0.73;;
47713;SDS011;33475;46.614;13.888;2022-09-03T12:01:03;1.33;;;0.95;;
47713;SDS011;33475;46.614;13.888;2022-09-03T12:03:44;1.27;;;0.80;;
47713;SDS011;33475;46.614;13.888;2022-09-03T12:06:16;1.60;;;0.50;;
47713;SDS011;33475;46.614;13.888;2022-09-03T12:11:45;1.27;;;0.70;;
47713;SDS011;33475;46.614;13.888;2022-09-03T12:14:18;1.45;;;0.80;;
47713;SDS011;33475;46.614;13.888;2022-09-03T12:19:57;0.93;;;0.73;;
47713;SDS011;33475;46.614;13.888;2022-09-03T12:21:58;1.15;;;0.70;;
47713;SDS011;33475;46.614;13.888;2022-09-03T12:24:27;0.98;;;0.77;;
47713;SDS011;33475;46.614;13.888;2022-09-03T12:26:59;2.85;;;0.80;;
47713;SDS011;33475;46.614;13.888;2022-09-03T12:29:27;2.13;;;0.65;;
47713;SDS011;33475;46.614;13.888;2022-09-03T12:31:54;1.10;;;0.70;;
47713;SDS011;33475;46.614;13.888;2022-09-03T12:34:21;2.47;;;0.60;;
47713;SDS011;33475;46.614;13.888;2022-09-03T12:36:48;1.20;;;0.75;;
47713;SDS011;33475;46.614;13.888;2022-09-03T12:39:20;2.75;;;0.80;;
47713;SDS011;33475;46.614;13.888;2022-09-03T12:44:26;1.63;;;0.80;;
47713;SDS011;33475;46.614;13.888;2022-09-03T12:47:01;1.63;;;1.20;;
47713;SDS011;33475;46.614;13.888;2022-09-03T12:49:32;1.88;;;0.95;;
47713;SDS011;33475;46.614;13.888;2022-09-03T12:52:04;1.02;;;0.70;;
47713;SDS011;33475;46.614;13.888;2022-09-03T12:54:30;2.37;;;0.67;;
47713;SDS011;33475;46.614;13.888;2022-09-03T12:56:57;1.38;;;0.70;;
47713;SDS011;33475;46.614;13.888;2022-09-03T12:59:28;0.90;;;0.70;;
47713;SDS011;33475;46.614;13.888;2022-09-03T13:01:59;3.80;;;0.60;;
47713;SDS011;33475;46.614;13.888;2022-09-03T13:04:28;2.05;;;0.73;;
47713;SDS011;33475;46.614;13.888;2022-09-03T13:07:06;0.93;;;0.68;;
47713;SDS011;33475;46.614;13.888;2022-09-03T13:09:34;1.27;;;0.60;;
47713;SDS011;33475;46.614;13.888;2022-09-03T13:12:01;1.17;;;0.75;;
47713;SDS011;33475;46.614;13.888;2022-09-03T13:14:40;1.40;;;0.60;;
47713;SDS011;33475;46.614;13.888;2022-09-03T13:17:51;1.15;;;0.80;;
47713;SDS011;33475;46.614;13.888;2022-09-03T13:20:03;0.80;;;0.60;;
47713;SDS011;33475;46.614;13.888;2022-09-03T13:23:20;2.38;;;0.70;;
47713;SDS011;33475;46.614;13.888;2022-09-03T13:25:29;1.27;;;0.60;;
47713;SDS011;33475;46.614;13.888;2022-09-03T13:28:34;1.00;;;0.77;;
47713;SDS011;33475;46.614;13.888;2022-09-03T13:33:46;1.25;;;0.90;;
47713;SDS011;33475;46.614;13.888;2022-09-03T13:36:25;2.45;;;0.70;;
47713;SDS011;33475;46.614;13.888;2022-09-03T13:39:06;1.13;;;0.70;;
47713;SDS011;33475;46.614;13.888;2022-09-03T13:41:55;1.10;;;0.68;;
47713;SDS011;33475;46.614;13.888;2022-09-03T13:47:22;0.85;;;0.70;;
47713;SDS011;33475;46.614;13.888;2022-09-03T13:52:40;4.65;;;1.02;;
47713;SDS011;33475;46.614;13.888;2022-09-03T13:55:11;1.05;;;0.80;;
47713;SDS011;33475;46.614;13.888;2022-09-03T14:00:23;2.90;;;1.00;;
47713;SDS011;33475;46.614;13.888;2022-09-03T14:02:53;4.25;;;0.80;;
47713;SDS011;33475;46.614;13.888;2022-09-03T14:05:29;0.70;;;0.50;;
47713;SDS011;33475;46.614;13.888;2022-09-03T14:20:58;6.20;;;1.05;;
47713;SDS011;33475;46.614;13.888;2022-09-03T14:26:15;1.42;;;0.80;;
47713;SDS011;33475;46.614;13.888;2022-09-03T14:28:46;0.70;;;0.70;;
47713;SDS011;33475;46.614;13.888;2022-09-03T14:42:02;6.55;;;0.75;;
47713;SDS011;33475;46.614;13.888;2022-09-03T14:47:21;1.17;;;0.80;;
47713;SDS011;33475;46.614;13.888;2022-09-03T14:54:54;1.25;;;0.70;;
47713;SDS011;33475;46.614;13.888;2022-09-03T14:57:27;1.08;;;0.90;;
47713;SDS011;33475;46.614;13.888;2022-09-03T15:00:00;3.00;;;0.60;;
47713;SDS011;33475;46.614;13.888;2022-09-03T15:10:01;2.05;;;0.70;;
47713;SDS011;33475;46.614;13.888;2022-09-03T15:12:35;1.17;;;0.68;;
47713;SDS011;33475;46.614;13.888;2022-09-03T15:17:53;0.60;;;0.60;;
47713;SDS011;33475;46.614;13.888;2022-09-03T15:23:01;3.80;;;0.50;;
47713;SDS011;33475;46.614;13.888;2022-09-03T15:28:24;1.90;;;0.60;;
47713;SDS011;33475;46.614;13.888;2022-09-03T15:33:30;1.27;;;0.50;;
47713;SDS011;33475;46.614;13.888;2022-09-03T15:41:09;0.90;;;0.65;;
47713;SDS011;33475;46.614;13.888;2022-09-03T15:43:42;0.95;;;0.60;;
47713;SDS011;33475;46.614;13.888;2022-09-03T15:46:27;0.55;;;0.50;;
47713;SDS011;33475;46.614;13.888;2022-09-03T15:48:56;1.38;;;0.60;;
47713;SDS011;33475;46.614;13.888;2022-09-03T15:51:29;2.75;;;0.73;;
47713;SDS011;33475;46.614;13.888;2022-09-03T15:59:47;1.88;;;0.50;;
47713;SDS011;33475;46.614;13.888;2022-09-03T16:02:22;0.82;;;0.70;;
47713;SDS011;33475;46.614;13.888;2022-09-03T16:15:15;8.30;;;0.82;;
47713;SDS011;33475;46.614;13.888;2022-09-03T16:20:45;1.70;;;0.75;;
47713;SDS011;33475;46.614;13.888;2022-09-03T16:26:05;1.70;;;1.10;;
47713;SDS011;33475;46.614;13.888;2022-09-03T16:28:45;2.35;;;0.80;;
47713;SDS011;33475;46.614;13.888;2022-09-03T16:39:01;1.35;;;0.82;;
47713;SDS011;33475;46.614;13.888;2022-09-03T16:41:32;1.38;;;0.82;;
47713;SDS011;33475;46.614;13.888;2022-09-03T16:44:02;4.47;;;0.90;;
47713;SDS011;33475;46.614;13.888;2022-09-03T16:46:41;0.75;;;0.75;;
47713;SDS011;33475;46.614;13.888;2022-09-03T16:54:13;1.42;;;0.88;;
47713;SDS011;33475;46.614;13.888;2022-09-03T16:56:47;5.25;;;0.85;;
47713;SDS011;33475;46.614;13.888;2022-09-03T17:09:36;1.77;;;0.90;;
47713;SDS011;33475;46.614;13.888;2022-09-03T17:19:37;1.20;;;0.60;;
47713;SDS011;33475;46.614;13.888;2022-09-03T17:22:10;4.63;;;0.90;;
47713;SDS011;33475;46.614;13.888;2022-09-03T17:24:41;2.75;;;1.05;;
47713;SDS011;33475;46.614;13.888;2022-09-03T17:35:20;4.18;;;0.60;;
47713;SDS011;33475;46.614;13.888;2022-09-03T17:38:15;0.85;;;0.80;;
47713;SDS011;33475;46.614;13.888;2022-09-03T17:51:26;1.17;;;0.88;;
47713;SDS011;33475;46.614;13.888;2022-09-03T17:56:29;2.72;;;0.90;;
47713;SDS011;33475;46.614;13.888;2022-09-03T18:01:27;2.83;;;0.65;;
47713;SDS011;33475;46.614;13.888;2022-09-03T18:03:59;0.80;;;0.80;;
47713;SDS011;33475;46.614;13.888;2022-09-03T18:06:31;0.68;;;0.68;;
47713;SDS011;33475;46.614;13.888;2022-09-03T18:11:39;1.17;;;0.93;;
47713;SDS011;33475;46.614;13.888;2022-09-03T18:21:57;0.75;;;0.75;;
47713;SDS011;33475;46.614;13.888;2022-09-03T18:24:50;1.92;;;0.88;;
47713;SDS011;33475;46.614;13.888;2022-09-03T18:27:38;1.10;;;0.90;;
47713;SDS011;33475;46.614;13.888;2022-09-03T18:30:23;0.93;;;0.88;;
47713;SDS011;33475;46.614;13.888;2022-09-03T18:33:08;1.15;;;1.05;;
47713;SDS011;33475;46.614;13.888;2022-09-03T18:35:53;1.23;;;0.90;;
47713;SDS011;33475;46.614;13.888;2022-09-03T18:38:39;3.63;;;0.75;;
47713;SDS011;33475;46.614;13.888;2022-09-03T18:41:34;0.90;;;0.90;;
47713;SDS011;33475;46.614;13.888;2022-09-03T18:47:58;2.05;;;1.02;;
47713;SDS011;33475;46.614;13.888;2022-09-03T18:53:26;1.38;;;1.00;;
47713;SDS011;33475;46.614;13.888;2022-09-03T18:56:15;1.48;;;0.80;;
47713;SDS011;33475;46.614;13.888;2022-09-03T18:59:11;1.45;;;0.90;;
47713;SDS011;33475;46.614;13.888;2022-09-03T19:02:01;0.88;;;0.88;;
47713;SDS011;33475;46.614;13.888;2022-09-03T19:10:37;0.98;;;0.98;;
47713;SDS011;33475;46.614;13.888;2022-09-03T19:13:31;2.95;;;1.13;;
47713;SDS011;33475;46.614;13.888;2022-09-03T19:22:05;1.50;;;1.00;;
47713;SDS011;33475;46.614;13.888;2022-09-03T19:24:52;1.98;;;0.90;;
47713;SDS011;33475;46.614;13.888;2022-09-03T19:41:56;1.92;;;1.08;;
47713;SDS011;33475;46.614;13.888;2022-09-03T19:44:54;4.55;;;1.10;;
47713;SDS011;33475;46.614;13.888;2022-09-03T19:50:41;1.20;;;0.85;;
47713;SDS011;33475;46.614;13.888;2022-09-03T19:53:28;5.55;;;1.40;;
47713;SDS011;33475;46.614;13.888;2022-09-03T19:56:18;1.80;;;1.25;;
47713;SDS011;33475;46.614;13.888;2022-09-03T19:59:09;1.27;;;1.08;;
47713;SDS011;33475;46.614;13.888;2022-09-03T20:01:55;1.58;;;1.10;;
47713;SDS011;33475;46.614;13.888;2022-09-03T20:04:54;2.05;;;1.10;;
47713;SDS011;33475;46.614;13.888;2022-09-03T20:07:40;1.10;;;0.98;;
47713;SDS011;33475;46.614;13.888;2022-09-03T20:10:24;2.05;;;1.20;;
47713;SDS011;33475;46.614;13.888;2022-09-03T20:15:18;1.73;;;1.02;;
47713;SDS011;33475;46.614;13.888;2022-09-03T20:20:33;1.75;;;1.33;;